Time;durP1;ratioP1;P1;durP2;ratioP2;P2;SDS_P1;SDS_P2;PMS_P1;PMS_P2;Temp;Humidity;BMP_temperature;BMP_pressure;BME280_temperature;BME280_humidity;BME280_pressure;Samples;Min_cycle;Max_cycle;Signal;HPM_P1;HPM_P2
2022/09/29 00:00:00;;;;;;;;;;;21.30;44.10;;;;;;485466;245;1104;-53
2022/09/29 00:02:02;;;;;;;;;;;21.30;44.10;;;;;;485701;245;1237;-54
2022/09/29 00:04:03;;;;;;;;;;;21.30;44.10;;;;;;485120;245;1394;-53
2022/09/29 00:06:04;;;;;;;;;;;21.30;44.10;;;;;;485324;245;2164;-53
2022/09/29 00:08:06;;;;;;;;;;;21.30;44.10;;;;;;485779;245;1322;-53
2022/09/29 00:10:07;;;;;;;;;;;21.30;44.10;;;;;;485513;245;1078;-53
2022/09/29 00:12:08;;;;;;;;;;;21.30;44.00;;;;;;485751;245;1306;-53
2022/09/29 00:14:10;;;;;;;;;;;21.30;44.00;;;;;;485753;245;1188;-53
2022/09/29 00:16:11;;;;;;;;;;;21.30;44.10;;;;;;485764;245;1218;-54
2022/09/29 00:18:12;;;;;;;;;;;21.30;44.10;;;;;;485325;245;1147;-53
2022/09/29 00:20:15;;;;;;;;;;;21.30;44.10;;;;;;485782;245;1094;-53
2022/09/29 00:22:15;;;;;;;;;;;21.30;44.10;;;;;;485709;246;2088;-53
2022/09/29 00:24:16;;;;;;;;;;;21.30;44.10;;;;;;485735;245;1189;-54
2022/09/29 00:26:18;;;;;;;;;;;21.30;44.10;;;;;;485740;245;2199;-53
2022/09/29 00:28:19;;;;;;;;;;;21.30;44.10;;;;;;485503;245;1327;-54
2022/09/29 00:30:20;;;;;;;;;;;21.30;44.10;;;;;;485261;245;1271;-53
2022/09/29 00:32:22;;;;;;;;;;;21.30;44.00;;;;;;485652;245;1335;-53
2022/09/29 00:34:23;;;;;;;;;;;21.30;44.10;;;;;;485587;245;1380;-53
2022/09/29 00:36:28;;;;;;;;;;;21.30;44.10;;;;;;485287;245;1360;-54
2022/09/29 00:38:26;;;;;;;;;;;21.30;44.10;;;;;;485111;246;2361;-53
2022/09/29 00:40:27;;;;;;;;;;;21.30;44.10;;;;;;485465;245;1320;-53
2022/09/29 00:42:30;;;;;;;;;;;21.30;44.10;;;;;;485743;245;1282;-54
2022/09/29 00:44:30;;;;;;;;;;;21.30;44.10;;;;;;485558;245;1455;-53
2022/09/29 00:46:31;;;;;;;;;;;21.30;44.10;;;;;;485737;245;2199;-53
2022/09/29 00:48:32;;;;;;;;;;;21.30;44.10;;;;;;485609;245;1189;-53
2022/09/29 00:50:34;;;;;;;;;;;21.30;44.10;;;;;;485678;245;1187;-53
2022/09/29 00:52:35;;;;;;;;;;;21.30;44.10;;;;;;485740;245;1241;-53
2022/09/29 00:54:37;;;;;;;;;;;21.30;44.10;;;;;;485741;245;1254;-53
2022/09/29 00:56:38;;;;;;;;;;;21.30;44.10;;;;;;485734;245;1338;-53
2022/09/29 00:58:39;;;;;;;;;;;21.30;44.10;;;;;;485739;245;1235;-54
2022/09/29 01:00:42;;;;;;;;;;;21.30;44.20;;;;;;485697;245;1208;-53
2022/09/29 01:02:42;;;;;;;;;;;21.30;44.10;;;;;;485389;246;1600;-53
2022/09/29 01:04:43;;;;;;;;;;;21.30;44.10;;;;;;485350;245;1322;-53
2022/09/29 01:06:44;;;;;;;;;;;21.30;44.10;;;;;;485359;245;2157;-53
2022/09/29 01:08:46;;;;;;;;;;;21.30;44.10;;;;;;485302;245;1427;-54
2022/09/29 01:10:47;;;;;;;;;;;21.30;44.10;;;;;;485478;245;1852;-54
2022/09/29 01:12:48;;;;;;;;;;;21.30;44.10;;;;;;485740;245;1212;-53
2022/09/29 01:14:50;;;;;;;;;;;21.30;44.00;;;;;;485620;245;1397;-53
2022/09/29 01:16:51;;;;;;;;;;;21.30;44.10;;;;;;485498;245;1190;-53
2022/09/29 01:18:53;;;;;;;;;;;21.30;44.10;;;;;;485596;245;1088;-54
2022/09/29 01:20:54;;;;;;;;;;;21.30;44.10;;;;;;485765;245;1215;-53
2022/09/29 01:22:55;;;;;;;;;;;21.30;44.20;;;;;;485781;245;1132;-53
2022/09/29 01:24:57;;;;;;;;;;;21.30;44.20;;;;;;485324;245;1219;-54
2022/09/29 01:26:58;;;;;;;;;;;21.30;44.20;;;;;;485767;245;2167;-54
2022/09/29 01:28:59;;;;;;;;;;;21.30;44.10;;;;;;485701;245;1228;-53
2022/09/29 01:31:01;;;;;;;;;;;21.30;44.10;;;;;;485594;245;1205;-53
2022/09/29 01:33:02;;;;;;;;;;;21.30;44.10;;;;;;485525;245;1192;-54
2022/09/29 01:35:03;;;;;;;;;;;21.30;44.10;;;;;;485730;245;1252;-53
2022/09/29 01:37:05;;;;;;;;;;;21.30;44.10;;;;;;485645;245;1210;-54
2022/09/29 01:39:06;;;;;;;;;;;21.30;44.20;;;;;;485518;245;1239;-53
2022/09/29 01:41:07;;;;;;;;;;;21.30;44.10;;;;;;485532;245;1243;-54
2022/09/29 01:43:09;;;;;;;;;;;21.30;44.10;;;;;;485746;245;1193;-53
2022/09/29 01:45:11;;;;;;;;;;;21.30;44.10;;;;;;485436;245;1323;-54
2022/09/29 01:47:12;;;;;;;;;;;21.30;44.10;;;;;;485352;246;2160;-54
2022/09/29 01:49:13;;;;;;;;;;;21.30;44.10;;;;;;485290;245;1299;-53
2022/09/29 01:51:14;;;;;;;;;;;21.30;44.10;;;;;;485694;245;1271;-53
2022/09/29 01:53:16;;;;;;;;;;;21.30;44.10;;;;;;485525;245;1264;-53
2022/09/29 01:55:17;;;;;;;;;;;21.30;44.20;;;;;;485331;245;1265;-53
2022/09/29 01:57:18;;;;;;;;;;;21.30;44.20;;;;;;485323;245;1268;-54
2022/09/29 01:59:20;;;;;;;;;;;21.30;44.10;;;;;;485763;245;1105;-54
2022/09/29 02:01:21;;;;;;;;;;;21.30;44.20;;;;;;485358;245;1173;-54
2022/09/29 02:03:23;;;;;;;;;;;21.30;44.20;;;;;;485524;245;1198;-54
2022/09/29 02:05:24;;;;;;;;;;;21.30;44.20;;;;;;485779;245;1122;-53
2022/09/29 02:07:25;;;;;;;;;;;21.30;44.10;;;;;;485755;245;2180;-53
2022/09/29 02:09:26;;;;;;;;;;;21.30;44.10;;;;;;485795;245;1092;-54
2022/09/29 02:11:28;;;;;;;;;;;21.30;44.10;;;;;;485503;245;1236;-54
2022/09/29 02:13:29;;;;;;;;;;;21.30;44.10;;;;;;485763;245;1188;-54
2022/09/29 02:15:31;;;;;;;;;;;21.30;44.10;;;;;;485283;245;1322;-52
2022/09/29 02:17:32;;;;;;;;;;;21.30;44.10;;;;;;485774;245;1353;-53
2022/09/29 02:19:33;;;;;;;;;;;21.30;44.10;;;;;;485770;245;1548;-54
2022/09/29 02:21:35;;;;;;;;;;;21.30;44.10;;;;;;485328;245;1120;-54
2022/09/29 02:23:36;;;;;;;;;;;21.30;44.10;;;;;;485352;245;1130;-53
2022/09/29 02:25:37;;;;;;;;;;;21.30;44.10;;;;;;485780;245;1116;-53
2022/09/29 02:27:38;;;;;;;;;;;21.30;44.10;;;;;;485355;245;2151;-53
2022/09/29 02:29:40;;;;;;;;;;;21.30;44.10;;;;;;485328;245;1185;-54
2022/09/29 02:31:41;;;;;;;;;;;21.30;44.20;;;;;;485802;245;1197;-53
2022/09/29 02:33:42;;;;;;;;;;;21.30;44.20;;;;;;485118;245;1150;-55
2022/09/29 02:35:44;;;;;;;;;;;21.30;44.20;;;;;;485804;245;1244;-54
2022/09/29 02:37:45;;;;;;;;;;;21.30;44.20;;;;;;485622;245;1199;-53
2022/09/29 02:39:46;;;;;;;;;;;21.30;44.20;;;;;;485327;245;1218;-53
2022/09/29 02:41:48;;;;;;;;;;;21.30;44.10;;;;;;485574;245;1647;-53
2022/09/29 02:43:49;;;;;;;;;;;21.30;44.10;;;;;;485757;245;1202;-53
2022/09/29 02:45:50;;;;;;;;;;;21.30;44.10;;;;;;485758;245;1312;-53
2022/09/29 02:47:54;;;;;;;;;;;21.30;44.20;;;;;;485756;245;2116;-53
2022/09/29 02:49:53;;;;;;;;;;;21.30;44.20;;;;;;485419;246;1563;-53
2022/09/29 02:51:55;;;;;;;;;;;21.30;44.20;;;;;;485752;245;1266;-53
2022/09/29 02:53:56;;;;;;;;;;;21.30;44.20;;;;;;485273;246;2249;-53
2022/09/29 02:55:57;;;;;;;;;;;21.30;44.20;;;;;;485487;245;1258;-53
2022/09/29 02:57:58;;;;;;;;;;;21.30;44.20;;;;;;485321;245;1330;-53
2022/09/29 03:00:04;;;;;;;;;;;21.30;44.10;;;;;;485590;245;1240;-54
2022/09/29 03:02:02;;;;;;;;;;;21.30;44.20;;;;;;485187;246;1598;-53
2022/09/29 03:04:03;;;;;;;;;;;21.30;44.10;;;;;;485078;245;1274;-54
2022/09/29 03:06:04;;;;;;;;;;;21.30;44.20;;;;;;485368;245;1340;-53
2022/09/29 03:08:05;;;;;;;;;;;21.30;44.10;;;;;;485686;245;1214;-54
2022/09/29 03:10:06;;;;;;;;;;;21.30;44.20;;;;;;485695;245;1205;-53
2022/09/29 03:12:08;;;;;;;;;;;21.30;44.20;;;;;;485300;245;1257;-53
2022/09/29 03:14:09;;;;;;;;;;;21.30;44.20;;;;;;485738;245;1328;-53
2022/09/29 03:16:11;;;;;;;;;;;21.30;44.20;;;;;;485750;245;1256;-54
2022/09/29 03:18:13;;;;;;;;;;;21.30;44.20;;;;;;485742;245;1438;-54
2022/09/29 03:20:14;;;;;;;;;;;21.30;44.20;;;;;;485702;245;2169;-53
2022/09/29 03:22:15;;;;;;;;;;;21.30;44.20;;;;;;485311;245;1263;-53
2022/09/29 03:24:16;;;;;;;;;;;21.30;44.20;;;;;;485291;245;1278;-53
2022/09/29 03:26:18;;;;;;;;;;;21.30;44.20;;;;;;485732;245;2151;-53
2022/09/29 03:28:19;;;;;;;;;;;21.30;44.20;;;;;;485295;245;1505;-53
2022/09/29 03:30:22;;;;;;;;;;;21.30;44.20;;;;;;485631;243;1277;-53
2022/09/29 03:32:22;;;;;;;;;;;21.30;44.20;;;;;;485136;246;1977;-54
2022/09/29 03:34:23;;;;;;;;;;;21.30;44.20;;;;;;485597;245;1212;-53
2022/09/29 03:36:25;;;;;;;;;;;21.30;44.20;;;;;;485732;245;1224;-53
2022/09/29 03:38:26;;;;;;;;;;;21.30;44.20;;;;;;485329;245;1253;-54
2022/09/29 03:40:27;;;;;;;;;;;21.30;44.20;;;;;;485707;245;1214;-54
2022/09/29 03:42:28;;;;;;;;;;;21.30;44.20;;;;;;485608;245;1266;-54
2022/09/29 03:44:30;;;;;;;;;;;21.30;44.20;;;;;;485294;245;1273;-53
2022/09/29 03:46:31;;;;;;;;;;;21.30;44.20;;;;;;485589;245;2164;-53
2022/09/29 03:48:34;;;;;;;;;;;21.30;44.30;;;;;;485705;245;1309;-53
2022/09/29 03:50:34;;;;;;;;;;;21.30;44.20;;;;;;485702;245;1444;-53
2022/09/29 03:52:35;;;;;;;;;;;21.30;44.20;;;;;;485553;245;1374;-53
2022/09/29 03:54:37;;;;;;;;;;;21.30;44.20;;;;;;485728;245;1298;-53
2022/09/29 03:56:38;;;;;;;;;;;21.30;44.20;;;;;;485791;245;1223;-53
2022/09/29 03:58:39;;;;;;;;;;;21.30;44.20;;;;;;485368;245;1330;-53
2022/09/29 04:00:41;;;;;;;;;;;21.30;44.30;;;;;;485265;245;1292;-53
2022/09/29 04:02:42;;;;;;;;;;;21.30;44.20;;;;;;485157;245;1273;-53
2022/09/29 04:04:43;;;;;;;;;;;21.30;44.20;;;;;;485701;245;1268;-53
2022/09/29 04:06:45;;;;;;;;;;;21.30;44.20;;;;;;485302;245;2195;-53
2022/09/29 04:08:48;;;;;;;;;;;21.30;44.20;;;;;;485779;245;1168;-53
2022/09/29 04:10:48;;;;;;;;;;;21.30;44.20;;;;;;485295;245;2433;-54
2022/09/29 04:12:49;;;;;;;;;;;21.30;44.30;;;;;;485623;245;1266;-54
2022/09/29 04:14:50;;;;;;;;;;;21.30;44.20;;;;;;485519;245;1375;-53
2022/09/29 04:16:51;;;;;;;;;;;21.30;44.20;;;;;;485753;245;1185;-53
2022/09/29 04:18:53;;;;;;;;;;;21.30;44.20;;;;;;485765;245;1074;-53
2022/09/29 04:20:56;;;;;;;;;;;21.30;44.20;;;;;;485677;245;1131;-53
2022/09/29 04:22:55;;;;;;;;;;;21.30;44.20;;;;;;485556;246;1579;-53
2022/09/29 04:24:57;;;;;;;;;;;21.30;44.20;;;;;;485651;245;1169;-53
2022/09/29 04:26:58;;;;;;;;;;;21.30;44.20;;;;;;485415;245;2164;-54
2022/09/29 04:28:59;;;;;;;;;;;21.30;44.20;;;;;;485352;245;1334;-53
2022/09/29 04:31:01;;;;;;;;;;;21.30;44.20;;;;;;485491;245;1265;-54
2022/09/29 04:33:02;;;;;;;;;;;21.30;44.10;;;;;;485285;245;1193;-53
2022/09/29 04:35:03;;;;;;;;;;;21.30;44.20;;;;;;485560;245;1223;-53
2022/09/29 04:37:05;;;;;;;;;;;21.30;44.20;;;;;;485308;245;1320;-53
2022/09/29 04:39:06;;;;;;;;;;;21.30;44.30;;;;;;485603;245;1285;-53
2022/09/29 04:41:07;;;;;;;;;;;21.30;44.20;;;;;;485239;245;1290;-53
2022/09/29 04:43:09;;;;;;;;;;;21.30;44.30;;;;;;485357;245;1357;-54
2022/09/29 04:45:10;;;;;;;;;;;21.30;44.20;;;;;;485271;245;1242;-53
2022/09/29 04:47:12;;;;;;;;;;;21.30;44.20;;;;;;485660;245;2152;-53
2022/09/29 04:49:13;;;;;;;;;;;21.30;44.20;;;;;;485348;245;1314;-53
2022/09/29 04:51:14;;;;;;;;;;;21.30;44.10;;;;;;485234;245;1278;-53
2022/09/29 04:53:16;;;;;;;;;;;21.30;44.10;;;;;;485688;245;1233;-54
2022/09/29 04:55:17;;;;;;;;;;;21.30;44.20;;;;;;485672;245;1430;-54
2022/09/29 04:57:18;;;;;;;;;;;21.30;44.20;;;;;;485350;245;1516;-54
2022/09/29 04:59:20;;;;;;;;;;;21.30;44.20;;;;;;485220;245;1277;-53
2022/09/29 05:01:21;;;;;;;;;;;21.30;44.20;;;;;;485257;245;1205;-52
2022/09/29 05:03:24;;;;;;;;;;;21.30;44.20;;;;;;485153;245;1240;-53
2022/09/29 05:05:24;;;;;;;;;;;21.30;44.20;;;;;;485171;245;2252;-54
2022/09/29 05:07:25;;;;;;;;;;;21.30;44.20;;;;;;485385;245;2164;-54
2022/09/29 05:09:26;;;;;;;;;;;21.30;44.20;;;;;;485658;245;1179;-53
2022/09/29 05:11:28;;;;;;;;;;;21.30;44.20;;;;;;485674;245;1213;-53
2022/09/29 05:13:29;;;;;;;;;;;21.30;44.30;;;;;;485569;245;1150;-53
2022/09/29 05:15:30;;;;;;;;;;;21.30;44.30;;;;;;485279;243;1168;-54
2022/09/29 05:17:32;;;;;;;;;;;21.30;44.30;;;;;;485687;245;1318;-53
2022/09/29 05:19:33;;;;;;;;;;;21.30;44.30;;;;;;485297;245;1258;-53
2022/09/29 05:21:34;;;;;;;;;;;21.30;44.30;;;;;;485368;245;1185;-53
2022/09/29 05:23:36;;;;;;;;;;;21.30;44.30;;;;;;485685;245;1292;-53
2022/09/29 05:25:39;;;;;;;;;;;21.30;44.30;;;;;;485284;245;1257;-53
2022/09/29 05:27:39;;;;;;;;;;;21.30;44.30;;;;;;485632;246;2203;-53
2022/09/29 05:29:40;;;;;;;;;;;21.30;44.30;;;;;;485364;245;1514;-53
2022/09/29 05:31:41;;;;;;;;;;;21.30;44.20;;;;;;485296;245;1303;-54
2022/09/29 05:33:43;;;;;;;;;;;21.30;44.30;;;;;;485012;245;1164;-53
2022/09/29 05:35:44;;;;;;;;;;;21.30;44.30;;;;;;485656;245;1382;-53
2022/09/29 05:37:45;;;;;;;;;;;21.30;44.30;;;;;;485424;245;1133;-53
2022/09/29 05:39:47;;;;;;;;;;;21.30;44.30;;;;;;485709;245;1110;-53
2022/09/29 05:41:48;;;;;;;;;;;21.30;44.30;;;;;;485776;245;1263;-54
2022/09/29 05:43:50;;;;;;;;;;;21.30;44.20;;;;;;485495;245;1081;-54
2022/09/29 05:45:51;;;;;;;;;;;21.30;44.20;;;;;;485357;245;1168;-52
2022/09/29 05:47:53;;;;;;;;;;;21.30;44.30;;;;;;485374;245;2168;-52
2022/09/29 05:49:54;;;;;;;;;;;21.30;44.30;;;;;;485125;245;1367;-53
2022/09/29 05:51:55;;;;;;;;;;;21.30;44.30;;;;;;485416;245;1143;-52
2022/09/29 05:53:56;;;;;;;;;;;21.30;44.30;;;;;;485624;245;1134;-53
2022/09/29 05:55:58;;;;;;;;;;;21.30;44.30;;;;;;485340;245;1163;-54
2022/09/29 05:57:59;;;;;;;;;;;21.30;44.30;;;;;;485274;245;1195;-53
2022/09/29 06:00:00;;;;;;;;;;;21.30;44.30;;;;;;485376;245;1178;-53
2022/09/29 06:02:02;;;;;;;;;;;21.30;44.20;;;;;;485205;245;1130;-52
2022/09/29 06:04:03;;;;;;;;;;;21.30;44.20;;;;;;484809;245;1759;-53
2022/09/29 06:06:04;;;;;;;;;;;21.40;44.20;;;;;;485165;245;1274;-52
2022/09/29 06:08:06;;;;;;;;;;;21.40;44.20;;;;;;485153;245;2164;-52
2022/09/29 06:10:07;;;;;;;;;;;21.40;44.20;;;;;;485653;245;1204;-52
2022/09/29 06:12:08;;;;;;;;;;;21.40;44.20;;;;;;485254;245;1224;-52
2022/09/29 06:14:10;;;;;;;;;;;21.40;44.10;;;;;;485201;245;1222;-53
2022/09/29 06:16:11;;;;;;;;;;;21.40;44.10;;;;;;485191;245;1322;-50
2022/09/29 06:18:12;;;;;;;;;;;21.40;44.10;;;;;;485139;245;1202;-52
2022/09/29 06:20:14;;;;;;;;;;;21.40;44.20;;;;;;484882;245;1232;-53
2022/09/29 06:22:15;;;;;;;;;;;21.40;44.10;;;;;;485213;245;1194;-52
2022/09/29 06:24:16;;;;;;;;;;;21.40;44.10;;;;;;485126;245;1095;-53
2022/09/29 06:26:18;;;;;;;;;;;21.40;44.00;;;;;;485364;245;1212;-52
2022/09/29 06:28:19;;;;;;;;;;;21.50;44.10;;;;;;485437;245;2186;-53
2022/09/29 06:30:20;;;;;;;;;;;21.50;44.10;;;;;;485301;245;1359;-52
2022/09/29 06:32:22;;;;;;;;;;;21.50;44.10;;;;;;485325;245;1274;-53
2022/09/29 06:34:23;;;;;;;;;;;21.50;44.10;;;;;;485006;245;1094;-52
2022/09/29 06:38:44;;;;;;;;;;;21.50;44.10;;;;;;485042;246;1131;-52
2022/09/29 06:40:45;;;;;;;;;;;21.50;44.00;;;;;;485220;245;1430;-53
2022/09/29 06:42:46;;;;;;;;;;;21.50;44.10;;;;;;485083;245;1379;-53
2022/09/29 06:44:48;;;;;;;;;;;21.50;44.10;;;;;;485101;245;1195;-52
2022/09/29 06:46:50;;;;;;;;;;;21.50;44.10;;;;;;485115;245;1210;-52
2022/09/29 06:48:50;;;;;;;;;;;21.50;44.10;;;;;;485285;245;2203;-53
2022/09/29 06:50:52;;;;;;;;;;;21.50;44.00;;;;;;485106;245;1177;-53
2022/09/29 06:52:53;;;;;;;;;;;21.50;44.00;;;;;;485185;245;1145;-53
2022/09/29 06:54:54;;;;;;;;;;;21.50;44.00;;;;;;485266;245;1174;-52
2022/09/29 06:56:56;;;;;;;;;;;21.60;44.10;;;;;;485180;245;1159;-52
2022/09/29 06:58:57;;;;;;;;;;;21.60;44.10;;;;;;484949;245;1239;-52
2022/09/29 07:00:58;;;;;;;;;;;21.50;44.00;;;;;;485085;245;1409;-52
2022/09/29 07:03:00;;;;;;;;;;;21.60;44.00;;;;;;484760;245;1243;-53
2022/09/29 07:05:01;;;;;;;;;;;21.60;44.00;;;;;;484921;243;1344;-53
2022/09/29 07:07:02;;;;;;;;;;;21.60;44.00;;;;;;485010;245;1175;-52
2022/09/29 07:09:04;;;;;;;;;;;21.60;44.00;;;;;;484881;245;2219;-52
2022/09/29 07:11:05;;;;;;;;;;;21.60;44.00;;;;;;485080;245;1207;-52
2022/09/29 07:13:07;;;;;;;;;;;21.60;44.10;;;;;;485193;245;1228;-53
2022/09/29 07:15:08;;;;;;;;;;;21.60;44.10;;;;;;485060;245;1904;-53
2022/09/29 07:17:09;;;;;;;;;;;21.60;44.10;;;;;;485034;245;1175;-52
2022/09/29 07:19:10;;;;;;;;;;;21.60;44.10;;;;;;485160;245;1229;-52
2022/09/29 07:21:12;;;;;;;;;;;21.60;44.20;;;;;;485288;245;1179;-53
2022/09/29 07:23:13;;;;;;;;;;;21.60;44.20;;;;;;485368;245;1247;-52
2022/09/29 07:25:14;;;;;;;;;;;21.60;44.30;;;;;;485355;245;1212;-53
2022/09/29 07:27:23;;;;;;;;;;;21.60;44.20;;;;;;485097;245;1216;-53
2022/09/29 07:29:17;;;;;;;;;;;21.60;44.20;;;;;;484621;246;2299;-52
2022/09/29 07:31:18;;;;;;;;;;;21.70;44.30;;;;;;485106;245;1223;-52
2022/09/29 07:33:19;;;;;;;;;;;21.60;44.30;;;;;;484913;245;1239;-52
2022/09/29 07:35:21;;;;;;;;;;;21.70;44.40;;;;;;485168;245;1157;-53
2022/09/29 07:37:23;;;;;;;;;;;21.70;44.30;;;;;;485187;245;1213;-53
2022/09/29 07:39:24;;;;;;;;;;;21.70;44.30;;;;;;485072;245;2260;-53
2022/09/29 07:41:25;;;;;;;;;;;21.70;44.40;;;;;;485097;245;1252;-52
2022/09/29 07:43:26;;;;;;;;;;;21.70;44.50;;;;;;485142;245;1279;-53
2022/09/29 07:45:28;;;;;;;;;;;21.70;44.50;;;;;;484957;245;1217;-52
2022/09/29 07:47:30;;;;;;;;;;;21.70;44.50;;;;;;484973;245;1133;-52
2022/09/29 07:49:30;;;;;;;;;;;21.70;44.50;;;;;;485057;245;2167;-53
2022/09/29 07:51:32;;;;;;;;;;;21.70;44.40;;;;;;484982;245;1180;-53
2022/09/29 07:53:33;;;;;;;;;;;21.70;44.40;;;;;;485349;245;1152;-53
2022/09/29 07:55:34;;;;;;;;;;;21.70;44.50;;;;;;485054;245;1213;-52
2022/09/29 07:57:36;;;;;;;;;;;21.60;44.40;;;;;;485494;245;1230;-53
2022/09/29 07:59:37;;;;;;;;;;;21.70;44.50;;;;;;485206;245;1300;-53
2022/09/29 08:01:38;;;;;;;;;;;21.70;44.50;;;;;;484933;245;1288;-52
2022/09/29 08:03:40;;;;;;;;;;;21.70;44.40;;;;;;484985;245;1237;-53
2022/09/29 08:05:41;;;;;;;;;;;21.70;44.50;;;;;;485071;245;1213;-52
2022/09/29 08:07:42;;;;;;;;;;;21.70;44.50;;;;;;485085;242;1322;-52
2022/09/29 08:09:44;;;;;;;;;;;21.70;44.50;;;;;;485069;245;2188;-52
2022/09/29 08:11:45;;;;;;;;;;;21.70;44.50;;;;;;485181;245;1224;-52
2022/09/29 08:13:46;;;;;;;;;;;21.70;44.50;;;;;;485089;245;1231;-53
2022/09/29 08:15:48;;;;;;;;;;;21.70;44.40;;;;;;485061;245;1246;-52
2022/09/29 08:17:49;;;;;;;;;;;21.70;44.50;;;;;;485035;245;1272;-53
2022/09/29 08:19:50;;;;;;;;;;;21.70;44.50;;;;;;485183;245;1129;-53
2022/09/29 08:21:52;;;;;;;;;;;21.70;44.40;;;;;;485169;245;1253;-52
2022/09/29 08:23:53;;;;;;;;;;;21.70;44.50;;;;;;485432;245;1110;-53
2022/09/29 08:25:54;;;;;;;;;;;21.70;44.50;;;;;;485020;245;1169;-53
2022/09/29 08:27:56;;;;;;;;;;;21.70;44.50;;;;;;485114;242;1288;-53
2022/09/29 08:29:57;;;;;;;;;;;21.70;44.40;;;;;;484957;245;2123;-53
2022/09/29 08:31:59;;;;;;;;;;;21.70;44.50;;;;;;485183;245;1203;-52
2022/09/29 08:34:00;;;;;;;;;;;21.70;44.40;;;;;;484911;245;1120;-53
2022/09/29 08:36:02;;;;;;;;;;;21.70;44.40;;;;;;485221;245;1226;-52
2022/09/29 08:38:03;;;;;;;;;;;21.70;44.40;;;;;;485232;246;1596;-52
2022/09/29 08:40:04;;;;;;;;;;;21.70;44.40;;;;;;485041;245;1255;-52
2022/09/29 08:42:05;;;;;;;;;;;21.70;44.40;;;;;;485177;245;1291;-53
2022/09/29 08:44:07;;;;;;;;;;;21.70;44.40;;;;;;485043;245;1201;-52
2022/09/29 08:46:08;;;;;;;;;;;21.70;44.40;;;;;;484994;245;1189;-54
2022/09/29 08:48:10;;;;;;;;;;;21.70;44.40;;;;;;484885;245;2200;-53
2022/09/29 08:50:11;;;;;;;;;;;21.70;44.50;;;;;;484811;245;1210;-52
2022/09/29 08:52:12;;;;;;;;;;;21.80;44.50;;;;;;485058;245;1191;-53
2022/09/29 08:54:13;;;;;;;;;;;21.70;44.50;;;;;;484836;245;1188;-52
2022/09/29 08:56:15;;;;;;;;;;;21.70;44.50;;;;;;484962;245;1268;-52
2022/09/29 08:58:16;;;;;;;;;;;21.70;44.50;;;;;;484965;245;1289;-53
2022/09/29 09:00:17;;;;;;;;;;;21.80;44.60;;;;;;484890;245;1231;-53
2022/09/29 09:02:19;;;;;;;;;;;21.80;44.50;;;;;;484805;245;1241;-53
2022/09/29 09:04:20;;;;;;;;;;;21.80;44.50;;;;;;484866;245;1235;-53
2022/09/29 09:06:22;;;;;;;;;;;21.90;44.50;;;;;;484336;245;1349;-53
2022/09/29 09:08:22;;;;;;;;;;;21.90;44.50;;;;;;484477;245;2192;-52
2022/09/29 09:10:24;;;;;;;;;;;21.90;44.60;;;;;;484756;245;1204;-52
2022/09/29 09:12:25;;;;;;;;;;;21.80;44.60;;;;;;484776;245;1312;-53
2022/09/29 09:14:26;;;;;;;;;;;21.90;44.70;;;;;;484870;245;1221;-53
2022/09/29 09:16:28;;;;;;;;;;;21.80;44.70;;;;;;484996;245;1227;-53
2022/09/29 09:18:29;;;;;;;;;;;21.80;44.80;;;;;;484851;245;1293;-52
2022/09/29 09:20:31;;;;;;;;;;;21.80;44.80;;;;;;485054;245;1206;-53
2022/09/29 09:22:32;;;;;;;;;;;21.80;44.80;;;;;;484928;245;1284;-53
2022/09/29 09:24:35;;;;;;;;;;;21.80;44.80;;;;;;484916;245;1257;-53
2022/09/29 09:26:35;;;;;;;;;;;21.80;44.80;;;;;;484962;246;2394;-53
2022/09/29 09:28:36;;;;;;;;;;;21.80;44.70;;;;;;484942;245;2159;-53
2022/09/29 09:30:38;;;;;;;;;;;21.80;44.70;;;;;;485026;245;1279;-53
2022/09/29 09:32:39;;;;;;;;;;;21.90;44.70;;;;;;484854;245;1220;-53
2022/09/29 09:34:40;;;;;;;;;;;21.80;44.80;;;;;;484831;245;1238;-52
2022/09/29 09:36:42;;;;;;;;;;;21.80;44.80;;;;;;484953;245;1223;-53
2022/09/29 09:38:43;;;;;;;;;;;21.80;44.80;;;;;;484882;245;1195;-52
2022/09/29 09:40:44;;;;;;;;;;;21.80;44.70;;;;;;485139;245;1284;-54
2022/09/29 09:42:46;;;;;;;;;;;21.80;44.70;;;;;;485085;245;1226;-53
2022/09/29 09:44:47;;;;;;;;;;;21.80;44.70;;;;;;484989;245;1855;-54
2022/09/29 09:46:49;;;;;;;;;;;21.80;44.70;;;;;;485051;245;1225;-53
2022/09/29 09:48:50;;;;;;;;;;;21.80;44.70;;;;;;485006;245;2152;-53
2022/09/29 09:50:52;;;;;;;;;;;21.80;44.80;;;;;;485110;245;1177;-54
2022/09/29 09:52:53;;;;;;;;;;;21.80;44.90;;;;;;485088;245;1252;-53
2022/09/29 09:54:54;;;;;;;;;;;21.70;44.80;;;;;;485010;245;1281;-54
2022/09/29 09:56:56;;;;;;;;;;;21.80;44.80;;;;;;485402;245;1252;-54
2022/09/29 09:58:57;;;;;;;;;;;21.70;44.80;;;;;;484997;245;1186;-52
2022/09/29 10:00:58;;;;;;;;;;;21.70;44.80;;;;;;485157;245;1081;-54
2022/09/29 10:03:00;;;;;;;;;;;21.80;44.90;;;;;;485027;245;1139;-53
2022/09/29 10:05:01;;;;;;;;;;;21.70;44.90;;;;;;485098;245;1108;-54
2022/09/29 10:07:02;;;;;;;;;;;21.70;44.90;;;;;;485073;245;1253;-52
2022/09/29 10:09:04;;;;;;;;;;;21.70;44.80;;;;;;485229;245;2184;-53
2022/09/29 10:11:05;;;;;;;;;;;21.70;44.90;;;;;;484770;245;1156;-53
2022/09/29 10:13:07;;;;;;;;;;;21.70;44.80;;;;;;485132;245;1207;-54
2022/09/29 10:15:08;;;;;;;;;;;21.70;44.90;;;;;;484960;245;1405;-53
2022/09/29 10:17:11;;;;;;;;;;;21.70;44.80;;;;;;485047;245;1212;-53
2022/09/29 10:19:10;;;;;;;;;;;21.70;44.80;;;;;;484870;246;1717;-53
2022/09/29 10:21:12;;;;;;;;;;;21.70;44.90;;;;;;485207;245;1230;-54
2022/09/29 10:23:13;;;;;;;;;;;21.70;45.00;;;;;;485260;245;1631;-53
2022/09/29 10:25:14;;;;;;;;;;;21.70;44.90;;;;;;485133;245;1204;-54
2022/09/29 10:27:16;;;;;;;;;;;21.70;44.90;;;;;;485092;245;1217;-54
2022/09/29 10:29:17;;;;;;;;;;;21.70;44.90;;;;;;485087;245;2206;-53
2022/09/29 10:31:18;;;;;;;;;;;21.70;45.00;;;;;;484699;245;1279;-54
2022/09/29 10:33:20;;;;;;;;;;;21.70;44.90;;;;;;484913;245;1266;-53
2022/09/29 10:35:21;;;;;;;;;;;21.70;45.00;;;;;;485343;245;1205;-53
2022/09/29 10:37:23;;;;;;;;;;;21.70;44.90;;;;;;485057;245;1304;-53
2022/09/29 10:39:24;;;;;;;;;;;21.70;45.00;;;;;;485270;245;1341;-53
2022/09/29 10:41:25;;;;;;;;;;;21.70;45.00;;;;;;484977;245;1224;-54
2022/09/29 10:43:27;;;;;;;;;;;21.70;45.00;;;;;;484969;245;1250;-54
2022/09/29 10:45:28;;;;;;;;;;;21.70;45.00;;;;;;484876;245;1232;-53
2022/09/29 10:47:30;;;;;;;;;;;21.60;44.90;;;;;;485045;245;1349;-53
2022/09/29 10:49:31;;;;;;;;;;;21.70;44.90;;;;;;485000;245;2163;-53
2022/09/29 10:51:32;;;;;;;;;;;21.70;44.90;;;;;;485049;245;1203;-53
2022/09/29 10:53:34;;;;;;;;;;;21.70;45.00;;;;;;484998;245;1720;-53
2022/09/29 10:55:35;;;;;;;;;;;21.70;45.00;;;;;;485027;245;1221;-53
2022/09/29 10:57:36;;;;;;;;;;;21.60;44.90;;;;;;485118;245;1227;-53
2022/09/29 10:59:38;;;;;;;;;;;21.70;45.00;;;;;;485387;245;1285;-52
2022/09/29 11:01:39;;;;;;;;;;;21.70;45.00;;;;;;485118;245;1534;-54
2022/09/29 11:03:41;;;;;;;;;;;21.70;45.00;;;;;;484889;245;1218;-54
2022/09/29 11:05:42;;;;;;;;;;;21.70;45.00;;;;;;485224;245;1226;-53
2022/09/29 11:07:43;;;;;;;;;;;21.70;45.00;;;;;;485297;245;2302;-54
2022/09/29 11:09:44;;;;;;;;;;;21.70;44.90;;;;;;485005;245;2194;-53
2022/09/29 11:11:46;;;;;;;;;;;21.70;44.90;;;;;;485295;245;1183;-53
2022/09/29 11:13:47;;;;;;;;;;;21.70;45.00;;;;;;485072;245;1237;-53
2022/09/29 11:15:48;;;;;;;;;;;21.70;44.90;;;;;;485171;245;1165;-53
2022/09/29 11:17:50;;;;;;;;;;;21.70;44.90;;;;;;485180;245;1211;-54
2022/09/29 11:19:51;;;;;;;;;;;21.70;44.90;;;;;;485011;245;1239;-53
2022/09/29 11:21:53;;;;;;;;;;;21.60;44.90;;;;;;485153;245;1239;-54
2022/09/29 11:23:54;;;;;;;;;;;21.70;45.00;;;;;;485202;245;1309;-54
2022/09/29 11:25:55;;;;;;;;;;;21.60;45.00;;;;;;485122;245;1368;-54
2022/09/29 11:27:57;;;;;;;;;;;21.60;45.00;;;;;;485056;245;1215;-54
2022/09/29 11:29:58;;;;;;;;;;;21.60;44.90;;;;;;485066;245;2148;-54
2022/09/29 11:31:59;;;;;;;;;;;21.70;45.00;;;;;;485274;245;1175;-54
2022/09/29 11:34:01;;;;;;;;;;;21.60;45.00;;;;;;484774;245;1184;-53
2022/09/29 11:36:02;;;;;;;;;;;21.70;45.00;;;;;;485196;245;1076;-53
2022/09/29 11:38:03;;;;;;;;;;;21.60;45.00;;;;;;484914;245;1249;-53
2022/09/29 11:40:05;;;;;;;;;;;21.60;45.00;;;;;;485221;245;1174;-54
2022/09/29 11:42:06;;;;;;;;;;;21.70;45.00;;;;;;485169;245;1092;-54
2022/09/29 11:44:07;;;;;;;;;;;21.60;44.90;;;;;;485287;245;1109;-54
2022/09/29 11:46:09;;;;;;;;;;;21.70;44.90;;;;;;484978;245;1222;-54
2022/09/29 11:48:10;;;;;;;;;;;21.70;44.90;;;;;;484895;245;1172;-53
2022/09/29 11:50:12;;;;;;;;;;;21.70;45.00;;;;;;485090;245;2168;-53
2022/09/29 11:52:13;;;;;;;;;;;21.60;44.90;;;;;;485043;245;1222;-54
2022/09/29 11:54:14;;;;;;;;;;;21.70;44.90;;;;;;484862;245;1209;-54
2022/09/29 11:56:16;;;;;;;;;;;21.70;44.90;;;;;;484856;245;1434;-54
2022/09/29 11:58:17;;;;;;;;;;;21.60;44.80;;;;;;485072;245;1171;-53